Aurora, Ohio
Current Conditions -  °F | °C
As of 6:21 PM on Wednesday 26 Nov 2014 (Local Time) from KPOV Reporting Station
Overcast Overcast  
Wind Chill:   Ceiling: 3300
Heat Index:   Visibility: 10mi
Dew Point: -5°   Wind: 3mph
Humidity: 64%   Direction: 310°NW
Pressure: 30.02"   Gusts: NA
Location:  41.31°N, 81.34°W
Report Text: KPOV 262321Z AUTO 31003KT 10SM OVC033 02/M05 A3002 RMK AO2 T00151047
Loading
Personal Weather Stations






























Interactive Weather Map New forecast layout! Learn more

10-Day Weather Forecast

Advertisements
Track Severe Weather on mobile